sensor_id;sensor_type;location;lat;lon;timestamp;pressure;altitude;pressure_sealevel;temperature;humidity
30554;BME280;17335;50.720;7.452;2023-04-29T00:00:20;99043.81;;;12.18;100.00
30554;BME280;17335;50.720;7.452;2023-04-29T00:02:46;99045.84;;;12.16;100.00
30554;BME280;17335;50.720;7.452;2023-04-29T00:05:13;99041.28;;;12.16;100.00
30554;BME280;17335;50.720;7.452;2023-04-29T00:07:40;99038.91;;;12.13;100.00
30554;BME280;17335;50.720;7.452;2023-04-29T00:10:08;99043.47;;;12.13;100.00
30554;BME280;17335;50.720;7.452;2023-04-29T00:12:34;99051.13;;;11.99;100.00
30554;BME280;17335;50.720;7.452;2023-04-29T00:15:01;99043.38;;;11.96;100.00
30554;BME280;17335;50.720;7.452;2023-04-29T00:17:29;99047.03;;;11.87;100.00
30554;BME280;17335;50.720;7.452;2023-04-29T00:19:56;99054.94;;;11.89;100.00
30554;BME280;17335;50.720;7.452;2023-04-29T00:22:22;99044.16;;;11.89;100.00
30554;BME280;17335;50.720;7.452;2023-04-29T00:24:49;99046.81;;;11.80;100.00
30554;BME280;17335;50.720;7.452;2023-04-29T00:27:15;99050.53;;;11.79;100.00
30554;BME280;17335;50.720;7.452;2023-04-29T00:29:43;99059.38;;;11.72;100.00
30554;BME280;17335;50.720;7.452;2023-04-29T00:32:10;99055.91;;;11.79;100.00
30554;BME280;17335;50.720;7.452;2023-04-29T00:34:36;99062.75;;;11.74;100.00
30554;BME280;17335;50.720;7.452;2023-04-29T00:37:02;99059.00;;;11.67;100.00
30554;BME280;17335;50.720;7.452;2023-04-29T00:39:29;99058.31;;;11.64;100.00
30554;BME280;17335;50.720;7.452;2023-04-29T00:41:56;99062.34;;;11.60;100.00
30554;BME280;17335;50.720;7.452;2023-04-29T00:44:22;99062.00;;;11.63;100.00
30554;BME280;17335;50.720;7.452;2023-04-29T00:46:48;99072.38;;;11.58;100.00
30554;BME280;17335;50.720;7.452;2023-04-29T00:49:15;99074.75;;;11.61;100.00
30554;BME280;17335;50.720;7.452;2023-04-29T00:51:42;99074.75;;;11.61;100.00
30554;BME280;17335;50.720;7.452;2023-04-29T00:54:09;99071.94;;;11.63;100.00
30554;BME280;17335;50.720;7.452;2023-04-29T00:56:38;99073.88;;;11.53;100.00
30554;BME280;17335;50.720;7.452;2023-04-29T00:59:08;99076.03;;;11.49;100.00
30554;BME280;17335;50.720;7.452;2023-04-29T01:01:35;99076.34;;;11.46;100.00
30554;BME280;17335;50.720;7.452;2023-04-29T01:04:04;99066.41;;;11.47;100.00
30554;BME280;17335;50.720;7.452;2023-04-29T01:09:48;99066.00;;;11.33;100.00
30554;BME280;17335;50.720;7.452;2023-04-29T01:15:03;99071.41;;;11.33;100.00
30554;BME280;17335;50.720;7.452;2023-04-29T01:17:39;99072.84;;;11.27;100.00
30554;BME280;17335;50.720;7.452;2023-04-29T01:20:08;99077.59;;;11.34;100.00
30554;BME280;17335;50.720;7.452;2023-04-29T01:22:35;99083.38;;;11.21;100.00
30554;BME280;17335;50.720;7.452;2023-04-29T01:25:02;99067.94;;;11.23;100.00
30554;BME280;17335;50.720;7.452;2023-04-29T01:27:46;99073.09;;;11.16;100.00
30554;BME280;17335;50.720;7.452;2023-04-29T01:32:52;99075.84;;;11.06;100.00
30554;BME280;17335;50.720;7.452;2023-04-29T01:35:46;99073.97;;;10.99;100.00
30554;BME280;17335;50.720;7.452;2023-04-29T01:38:33;99070.25;;;11.00;100.00
30554;BME280;17335;50.720;7.452;2023-04-29T01:41:14;99080.69;;;11.03;100.00
30554;BME280;17335;50.720;7.452;2023-04-29T01:43:46;99069.03;;;10.94;100.00
30554;BME280;17335;50.720;7.452;2023-04-29T01:46:16;99075.41;;;10.93;100.00
30554;BME280;17335;50.720;7.452;2023-04-29T01:48:44;99076.72;;;10.89;100.00
30554;BME280;17335;50.720;7.452;2023-04-29T01:51:11;99078.63;;;10.97;100.00
30554;BME280;17335;50.720;7.452;2023-04-29T01:53:38;99065.28;;;10.87;100.00
30554;BME280;17335;50.720;7.452;2023-04-29T01:56:08;99071.09;;;10.82;100.00
30554;BME280;17335;50.720;7.452;2023-04-29T01:58:35;99076.38;;;10.74;100.00
30554;BME280;17335;50.720;7.452;2023-04-29T02:01:01;99074.25;;;10.78;100.00
30554;BME280;17335;50.720;7.452;2023-04-29T02:03:28;99069.06;;;10.76;100.00
30554;BME280;17335;50.720;7.452;2023-04-29T02:05:54;99072.13;;;10.81;100.00
30554;BME280;17335;50.720;7.452;2023-04-29T02:08:21;99073.16;;;10.70;100.00
30554;BME280;17335;50.720;7.452;2023-04-29T02:10:55;99068.81;;;10.69;100.00
30554;BME280;17335;50.720;7.452;2023-04-29T02:13:22;99081.75;;;10.74;100.00
30554;BME280;17335;50.720;7.452;2023-04-29T02:15:48;99075.84;;;10.70;100.00
30554;BME280;17335;50.720;7.452;2023-04-29T02:18:15;99094.09;;;10.67;100.00
30554;BME280;17335;50.720;7.452;2023-04-29T02:20:41;99081.22;;;10.70;100.00
30554;BME280;17335;50.720;7.452;2023-04-29T02:23:08;99079.41;;;10.71;100.00
30554;BME280;17335;50.720;7.452;2023-04-29T02:25:35;99077.41;;;10.73;100.00
30554;BME280;17335;50.720;7.452;2023-04-29T02:28:02;99090.06;;;10.63;100.00
30554;BME280;17335;50.720;7.452;2023-04-29T02:30:29;99082.59;;;10.57;100.00
30554;BME280;17335;50.720;7.452;2023-04-29T02:32:56;99089.81;;;10.56;100.00
30554;BME280;17335;50.720;7.452;2023-04-29T02:35:22;99091.13;;;10.52;100.00
30554;BME280;17335;50.720;7.452;2023-04-29T02:37:49;99082.88;;;10.54;100.00
30554;BME280;17335;50.720;7.452;2023-04-29T02:40:15;99088.09;;;10.55;100.00
30554;BME280;17335;50.720;7.452;2023-04-29T02:42:42;99088.44;;;10.52;100.00
30554;BME280;17335;50.720;7.452;2023-04-29T02:45:09;99086.03;;;10.49;100.00
30554;BME280;17335;50.720;7.452;2023-04-29T02:47:36;99081.50;;;10.49;100.00
30554;BME280;17335;50.720;7.452;2023-04-29T02:50:03;99089.16;;;10.44;100.00
30554;BME280;17335;50.720;7.452;2023-04-29T02:52:30;99086.44;;;10.54;100.00
30554;BME280;17335;50.720;7.452;2023-04-29T02:54:57;99092.41;;;10.48;100.00
30554;BME280;17335;50.720;7.452;2023-04-29T02:57:24;99093.81;;;10.52;100.00
30554;BME280;17335;50.720;7.452;2023-04-29T02:59:51;99088.34;;;10.62;100.00
30554;BME280;17335;50.720;7.452;2023-04-29T03:02:18;99094.63;;;10.53;100.00
30554;BME280;17335;50.720;7.452;2023-04-29T03:04:45;99091.72;;;10.46;100.00
30554;BME280;17335;50.720;7.452;2023-04-29T03:07:11;99094.00;;;10.41;100.00
30554;BME280;17335;50.720;7.452;2023-04-29T03:09:38;99101.75;;;10.44;100.00
30554;BME280;17335;50.720;7.452;2023-04-29T03:12:05;99106.81;;;10.47;100.00
30554;BME280;17335;50.720;7.452;2023-04-29T03:14:31;99108.50;;;10.48;100.00
30554;BME280;17335;50.720;7.452;2023-04-29T03:16:58;99108.94;;;10.43;100.00
30554;BME280;17335;50.720;7.452;2023-04-29T03:19:25;99100.44;;;10.48;100.00
30554;BME280;17335;50.720;7.452;2023-04-29T03:21:51;99106.25;;;10.43;100.00
30554;BME280;17335;50.720;7.452;2023-04-29T03:24:19;99110.53;;;10.36;100.00
30554;BME280;17335;50.720;7.452;2023-04-29T03:26:46;99111.06;;;10.40;100.00
30554;BME280;17335;50.720;7.452;2023-04-29T03:29:13;99114.63;;;10.40;100.00
30554;BME280;17335;50.720;7.452;2023-04-29T03:31:39;99124.09;;;10.35;100.00
30554;BME280;17335;50.720;7.452;2023-04-29T03:34:07;99115.91;;;10.36;100.00
30554;BME280;17335;50.720;7.452;2023-04-29T03:36:33;99115.06;;;10.36;100.00
30554;BME280;17335;50.720;7.452;2023-04-29T03:39:00;99118.16;;;10.31;100.00
30554;BME280;17335;50.720;7.452;2023-04-29T03:41:26;99122.81;;;10.29;100.00
30554;BME280;17335;50.720;7.452;2023-04-29T03:43:53;99126.97;;;10.23;100.00
30554;BME280;17335;50.720;7.452;2023-04-29T03:46:20;99134.53;;;10.28;100.00
30554;BME280;17335;50.720;7.452;2023-04-29T03:48:47;99129.94;;;10.20;100.00
30554;BME280;17335;50.720;7.452;2023-04-29T03:51:13;99125.13;;;10.14;100.00
30554;BME280;17335;50.720;7.452;2023-04-29T03:53:40;99127.97;;;10.12;100.00
30554;BME280;17335;50.720;7.452;2023-04-29T03:56:07;99130.06;;;10.19;100.00
30554;BME280;17335;50.720;7.452;2023-04-29T03:58:33;99130.06;;;10.19;100.00
30554;BME280;17335;50.720;7.452;2023-04-29T04:01:00;99133.31;;;10.22;100.00
30554;BME280;17335;50.720;7.452;2023-04-29T04:03:27;99141.00;;;10.07;100.00
30554;BME280;17335;50.720;7.452;2023-04-29T04:05:54;99138.06;;;10.01;100.00
30554;BME280;17335;50.720;7.452;2023-04-29T04:08:20;99148.47;;;10.04;100.00
30554;BME280;17335;50.720;7.452;2023-04-29T04:10:47;99155.25;;;10.08;100.00
30554;BME280;17335;50.720;7.452;2023-04-29T04:13:14;99161.19;;;10.02;100.00
30554;BME280;17335;50.720;7.452;2023-04-29T04:15:41;99159.38;;;10.02;100.00
30554;BME280;17335;50.720;7.452;2023-04-29T04:18:07;99158.75;;;10.08;100.00
30554;BME280;17335;50.720;7.452;2023-04-29T04:20:37;99163.44;;;10.06;100.00
30554;BME280;17335;50.720;7.452;2023-04-29T04:23:04;99159.91;;;10.06;100.00
30554;BME280;17335;50.720;7.452;2023-04-29T04:25:30;99169.69;;;9.97;100.00
30554;BME280;17335;50.720;7.452;2023-04-29T04:27:57;99161.22;;;9.92;100.00
30554;BME280;17335;50.720;7.452;2023-04-29T04:30:24;99172.78;;;9.92;100.00
30554;BME280;17335;50.720;7.452;2023-04-29T04:32:50;99169.81;;;9.95;100.00
30554;BME280;17335;50.720;7.452;2023-04-29T04:35:17;99180.44;;;9.87;100.00
30554;BME280;17335;50.720;7.452;2023-04-29T04:37:43;99179.59;;;9.87;100.00
30554;BME280;17335;50.720;7.452;2023-04-29T04:40:11;99188.34;;;9.79;100.00
30554;BME280;17335;50.720;7.452;2023-04-29T04:42:38;99191.03;;;9.79;100.00
30554;BME280;17335;50.720;7.452;2023-04-29T04:45:06;99188.19;;;9.81;100.00
30554;BME280;17335;50.720;7.452;2023-04-29T04:47:32;99198.38;;;9.77;100.00
30554;BME280;17335;50.720;7.452;2023-04-29T04:49:59;99204.69;;;9.76;100.00
30554;BME280;17335;50.720;7.452;2023-04-29T04:52:25;99203.88;;;9.75;100.00
30554;BME280;17335;50.720;7.452;2023-04-29T04:54:52;99206.69;;;9.74;100.00
30554;BME280;17335;50.720;7.452;2023-04-29T04:57:19;99221.06;;;9.83;100.00
30554;BME280;17335;50.720;7.452;2023-04-29T04:59:45;99225.16;;;9.67;100.00
30554;BME280;17335;50.720;7.452;2023-04-29T05:02:12;99217.41;;;9.64;100.00
30554;BME280;17335;50.720;7.452;2023-04-29T05:04:39;99222.78;;;9.54;100.00
30554;BME280;17335;50.720;7.452;2023-04-29T05:07:05;99230.38;;;9.59;100.00
30554;BME280;17335;50.720;7.452;2023-04-29T05:09:32;99231.53;;;9.56;100.00
30554;BME280;17335;50.720;7.452;2023-04-29T05:11:59;99229.53;;;9.58;100.00
30554;BME280;17335;50.720;7.452;2023-04-29T05:14:25;99249.13;;;9.59;100.00
30554;BME280;17335;50.720;7.452;2023-04-29T05:16:52;99253.53;;;9.60;100.00
30554;BME280;17335;50.720;7.452;2023-04-29T05:19:19;99266.22;;;9.48;100.00
30554;BME280;17335;50.720;7.452;2023-04-29T05:21:46;99259.16;;;9.57;100.00
30554;BME280;17335;50.720;7.452;2023-04-29T05:24:12;99262.97;;;9.45;100.00
30554;BME280;17335;50.720;7.452;2023-04-29T05:26:39;99274.22;;;9.38;100.00
30554;BME280;17335;50.720;7.452;2023-04-29T05:29:13;99272.81;;;9.34;100.00
30554;BME280;17335;50.720;7.452;2023-04-29T05:31:39;99274.66;;;9.34;100.00
30554;BME280;17335;50.720;7.452;2023-04-29T05:34:06;99281.69;;;9.25;100.00
30554;BME280;17335;50.720;7.452;2023-04-29T05:36:33;99271.78;;;9.16;100.00
30554;BME280;17335;50.720;7.452;2023-04-29T05:39:00;99277.88;;;9.18;100.00
30554;BME280;17335;50.720;7.452;2023-04-29T05:41:26;99287.59;;;9.19;100.00
30554;BME280;17335;50.720;7.452;2023-04-29T05:43:53;99290.97;;;9.21;100.00
30554;BME280;17335;50.720;7.452;2023-04-29T05:46:19;99287.63;;;9.29;100.00
30554;BME280;17335;50.720;7.452;2023-04-29T05:48:48;99293.38;;;9.24;100.00
30554;BME280;17335;50.720;7.452;2023-04-29T05:51:15;99295.75;;;9.17;100.00
30554;BME280;17335;50.720;7.452;2023-04-29T05:53:41;99296.47;;;9.19;100.00
30554;BME280;17335;50.720;7.452;2023-04-29T05:56:08;99306.06;;;9.22;100.00
30554;BME280;17335;50.720;7.452;2023-04-29T05:58:35;99307.34;;;9.18;100.00
30554;BME280;17335;50.720;7.452;2023-04-29T06:01:02;99313.84;;;9.25;100.00
30554;BME280;17335;50.720;7.452;2023-04-29T06:03:28;99311.56;;;9.20;100.00
30554;BME280;17335;50.720;7.452;2023-04-29T06:05:57;99317.94;;;9.29;100.00
30554;BME280;17335;50.720;7.452;2023-04-29T06:08:24;99315.53;;;9.26;100.00
30554;BME280;17335;50.720;7.452;2023-04-29T06:10:50;99321.75;;;9.27;100.00
30554;BME280;17335;50.720;7.452;2023-04-29T06:13:18;99324.88;;;9.42;100.00
30554;BME280;17335;50.720;7.452;2023-04-29T06:15:45;99332.19;;;9.39;100.00
30554;BME280;17335;50.720;7.452;2023-04-29T06:18:12;99326.13;;;9.37;100.00
30554;BME280;17335;50.720;7.452;2023-04-29T06:20:38;99335.28;;;9.35;100.00
30554;BME280;17335;50.720;7.452;2023-04-29T06:23:05;99342.38;;;9.46;100.00
30554;BME280;17335;50.720;7.452;2023-04-29T06:25:31;99339.22;;;9.31;100.00
30554;BME280;17335;50.720;7.452;2023-04-29T06:27:58;99346.13;;;9.33;100.00
30554;BME280;17335;50.720;7.452;2023-04-29T06:30:25;99352.22;;;9.35;100.00
30554;BME280;17335;50.720;7.452;2023-04-29T06:32:52;99354.72;;;9.27;100.00
30554;BME280;17335;50.720;7.452;2023-04-29T06:35:18;99353.47;;;9.31;100.00
30554;BME280;17335;50.720;7.452;2023-04-29T06:37:45;99362.94;;;9.35;100.00
30554;BME280;17335;50.720;7.452;2023-04-29T06:40:13;99367.72;;;9.32;100.00
30554;BME280;17335;50.720;7.452;2023-04-29T06:42:39;99371.94;;;9.34;100.00
30554;BME280;17335;50.720;7.452;2023-04-29T06:45:06;99374.63;;;9.34;100.00
30554;BME280;17335;50.720;7.452;2023-04-29T06:47:32;99380.97;;;9.33;100.00
30554;BME280;17335;50.720;7.452;2023-04-29T06:50:00;99375.06;;;9.39;100.00
30554;BME280;17335;50.720;7.452;2023-04-29T06:52:26;99377.75;;;9.39;100.00
30554;BME280;17335;50.720;7.452;2023-04-29T06:54:53;99381.81;;;9.34;100.00
30554;BME280;17335;50.720;7.452;2023-04-29T06:57:20;99381.84;;;9.44;100.00
30554;BME280;17335;50.720;7.452;2023-04-29T06:59:47;99389.59;;;9.47;100.00
30554;BME280;17335;50.720;7.452;2023-04-29T07:02:13;99392.84;;;9.41;100.00
30554;BME280;17335;50.720;7.452;2023-04-29T07:04:40;99394.78;;;9.38;100.00
30554;BME280;17335;50.720;7.452;2023-04-29T07:07:07;99391.97;;;9.40;100.00
30554;BME280;17335;50.720;7.452;2023-04-29T07:09:33;99401.31;;;9.46;100.00
30554;BME280;17335;50.720;7.452;2023-04-29T07:12:00;99408.38;;;9.47;100.00
30554;BME280;17335;50.720;7.452;2023-04-29T07:14:30;99405.69;;;9.47;100.00
30554;BME280;17335;50.720;7.452;2023-04-29T07:16:57;99409.81;;;9.51;100.00
30554;BME280;17335;50.720;7.452;2023-04-29T07:19:23;99414.72;;;9.46;100.00
30554;BME280;17335;50.720;7.452;2023-04-29T07:21:50;99422.31;;;9.41;100.00
30554;BME280;17335;50.720;7.452;2023-04-29T07:24:17;99426.94;;;9.38;100.00
30554;BME280;17335;50.720;7.452;2023-04-29T07:26:43;99420.44;;;9.31;100.00
30554;BME280;17335;50.720;7.452;2023-04-29T07:29:12;99422.97;;;9.33;100.00
30554;BME280;17335;50.720;7.452;2023-04-29T07:31:39;99426.69;;;9.42;100.00
30554;BME280;17335;50.720;7.452;2023-04-29T07:34:06;99424.13;;;9.30;100.00
30554;BME280;17335;50.720;7.452;2023-04-29T07:36:32;99424.91;;;9.21;100.00
30554;BME280;17335;50.720;7.452;2023-04-29T07:38:59;99433.00;;;9.31;100.00
30554;BME280;17335;50.720;7.452;2023-04-29T07:41:26;99433.13;;;9.29;100.00
30554;BME280;17335;50.720;7.452;2023-04-29T07:43:53;99432.03;;;9.32;100.00
30554;BME280;17335;50.720;7.452;2023-04-29T07:46:19;99437.53;;;9.40;100.00
30554;BME280;17335;50.720;7.452;2023-04-29T07:48:46;99439.63;;;9.36;100.00
30554;BME280;17335;50.720;7.452;2023-04-29T07:51:14;99436.88;;;9.48;100.00
30554;BME280;17335;50.720;7.452;2023-04-29T07:53:42;99438.09;;;9.44;100.00
30554;BME280;17335;50.720;7.452;2023-04-29T07:56:08;99441.97;;;9.51;100.00
30554;BME280;17335;50.720;7.452;2023-04-29T07:58:35;99436.22;;;9.65;100.00
30554;BME280;17335;50.720;7.452;2023-04-29T08:01:08;99452.75;;;9.70;100.00
30554;BME280;17335;50.720;7.452;2023-04-29T08:03:37;99452.91;;;9.79;100.00
30554;BME280;17335;50.720;7.452;2023-04-29T08:06:07;99451.38;;;9.86;100.00
30554;BME280;17335;50.720;7.452;2023-04-29T08:08:34;99455.47;;;9.90;100.00
30554;BME280;17335;50.720;7.452;2023-04-29T08:11:01;99452.25;;;9.96;100.00
30554;BME280;17335;50.720;7.452;2023-04-29T08:13:28;99444.19;;;9.96;100.00
30554;BME280;17335;50.720;7.452;2023-04-29T08:15:54;99458.00;;;9.91;100.00
30554;BME280;17335;50.720;7.452;2023-04-29T08:18:21;99456.19;;;9.92;100.00
30554;BME280;17335;50.720;7.452;2023-04-29T08:20:48;99449.28;;;9.99;100.00
30554;BME280;17335;50.720;7.452;2023-04-29T08:23:17;99451.97;;;9.99;100.00
30554;BME280;17335;50.720;7.452;2023-04-29T08:25:44;99448.69;;;9.86;100.00
30554;BME280;17335;50.720;7.452;2023-04-29T08:28:10;99450.25;;;9.98;100.00
30554;BME280;17335;50.720;7.452;2023-04-29T08:30:40;99451.94;;;9.89;100.00
30554;BME280;17335;50.720;7.452;2023-04-29T08:33:07;99455.03;;;9.85;100.00
30554;BME280;17335;50.720;7.452;2023-04-29T08:35:34;99454.47;;;9.91;100.00
30554;BME280;17335;50.720;7.452;2023-04-29T08:38:04;99450.97;;;9.90;100.00
30554;BME280;17335;50.720;7.452;2023-04-29T08:40:51;99458.97;;;9.81;100.00
30554;BME280;17335;50.720;7.452;2023-04-29T08:43:18;99460.38;;;9.85;100.00
30554;BME280;17335;50.720;7.452;2023-04-29T08:45:47;99458.13;;;9.90;100.00
30554;BME280;17335;50.720;7.452;2023-04-29T08:48:17;99464.91;;;9.84;100.00
30554;BME280;17335;50.720;7.452;2023-04-29T08:50:44;99463.41;;;10.01;100.00
30554;BME280;17335;50.720;7.452;2023-04-29T08:53:12;99465.94;;;10.12;100.00
30554;BME280;17335;50.720;7.452;2023-04-29T08:55:43;99465.19;;;10.31;100.00
30554;BME280;17335;50.720;7.452;2023-04-29T08:58:11;99481.38;;;10.30;100.00
30554;BME280;17335;50.720;7.452;2023-04-29T09:00:42;99468.91;;;10.19;100.00
30554;BME280;17335;50.720;7.452;2023-04-29T09:03:26;99475.22;;;10.49;100.00
30554;BME280;17335;50.720;7.452;2023-04-29T09:05:54;99476.59;;;10.43;100.00
30554;BME280;17335;50.720;7.452;2023-04-29T09:08:22;99470.97;;;10.56;100.00
30554;BME280;17335;50.720;7.452;2023-04-29T09:10:50;99459.09;;;10.49;100.00
30554;BME280;17335;50.720;7.452;2023-04-29T09:13:29;99470.66;;;10.40;100.00
30554;BME280;17335;50.720;7.452;2023-04-29T09:15:57;99477.59;;;10.32;100.00
30554;BME280;17335;50.720;7.452;2023-04-29T09:18:49;99487.63;;;10.40;100.00
30554;BME280;17335;50.720;7.452;2023-04-29T09:23:51;99488.34;;;10.62;100.00
30554;BME280;17335;50.720;7.452;2023-04-29T09:26:18;99483.94;;;10.41;100.00
30554;BME280;17335;50.720;7.452;2023-04-29T09:28:46;99493.56;;;10.34;100.00
30554;BME280;17335;50.720;7.452;2023-04-29T09:31:26;99490.19;;;10.42;100.00
30554;BME280;17335;50.720;7.452;2023-04-29T09:33:54;99492.13;;;10.40;100.00
30554;BME280;17335;50.720;7.452;2023-04-29T09:36:41;99499.78;;;10.54;100.00
30554;BME280;17335;50.720;7.452;2023-04-29T09:39:08;99493.28;;;10.76;100.00
30554;BME280;17335;50.720;7.452;2023-04-29T09:41:42;99499.22;;;10.80;100.00
30554;BME280;17335;50.720;7.452;2023-04-29T09:44:24;99502.44;;;10.93;100.00
30554;BME280;17335;50.720;7.452;2023-04-29T09:47:08;99492.44;;;10.95;100.00
30554;BME280;17335;50.720;7.452;2023-04-29T09:49:37;99495.66;;;10.99;100.00
30554;BME280;17335;50.720;7.452;2023-04-29T09:52:12;99496.34;;;11.11;100.00
30554;BME280;17335;50.720;7.452;2023-04-29T09:54:40;99489.16;;;11.01;100.00
30554;BME280;17335;50.720;7.452;2023-04-29T09:57:09;99493.97;;;10.98;100.00
30554;BME280;17335;50.720;7.452;2023-04-29T09:59:40;99493.81;;;10.99;100.00
30554;BME280;17335;50.720;7.452;2023-04-29T10:02:17;99500.59;;;11.13;100.00
30554;BME280;17335;50.720;7.452;2023-04-29T10:04:46;99494.31;;;11.22;100.00
30554;BME280;17335;50.720;7.452;2023-04-29T10:07:17;99491.88;;;11.39;100.00
30554;BME280;17335;50.720;7.452;2023-04-29T10:09:45;99483.16;;;11.64;100.00
30554;BME280;17335;50.720;7.452;2023-04-29T10:12:18;99492.44;;;11.80;100.00
30554;BME280;17335;50.720;7.452;2023-04-29T10:15:03;99481.69;;;11.80;100.00
30554;BME280;17335;50.720;7.452;2023-04-29T10:17:51;99481.94;;;11.87;100.00
30554;BME280;17335;50.720;7.452;2023-04-29T10:20:24;99490.81;;;11.97;100.00
30554;BME280;17335;50.720;7.452;2023-04-29T10:22:52;99489.84;;;11.88;100.00
30554;BME280;17335;50.720;7.452;2023-04-29T10:25:24;99482.56;;;11.71;100.00
30554;BME280;17335;50.720;7.452;2023-04-29T10:27:51;99489.59;;;11.54;100.00
30554;BME280;17335;50.720;7.452;2023-04-29T10:30:20;99495.97;;;11.43;100.00
30554;BME280;17335;50.720;7.452;2023-04-29T10:32:48;99498.16;;;11.30;100.00
30554;BME280;17335;50.720;7.452;2023-04-29T10:35:19;99505.34;;;11.29;100.00
30554;BME280;17335;50.720;7.452;2023-04-29T10:37:52;99509.06;;;11.18;100.00
30554;BME280;17335;50.720;7.452;2023-04-29T10:42:54;99522.66;;;10.97;100.00
30554;BME280;17335;50.720;7.452;2023-04-29T10:45:30;99519.97;;;10.87;100.00
30554;BME280;17335;50.720;7.452;2023-04-29T10:50:28;99531.72;;;10.86;100.00
30554;BME280;17335;50.720;7.452;2023-04-29T10:52:55;99531.00;;;10.84;100.00
30554;BME280;17335;50.720;7.452;2023-04-29T10:55:23;99543.44;;;10.85;100.00
30554;BME280;17335;50.720;7.452;2023-04-29T10:57:54;99548.94;;;10.74;100.00
30554;BME280;17335;50.720;7.452;2023-04-29T11:00:28;99539.91;;;10.75;100.00
30554;BME280;17335;50.720;7.452;2023-04-29T11:02:56;99559.53;;;10.56;100.00
30554;BME280;17335;50.720;7.452;2023-04-29T11:05:36;99557.69;;;10.57;100.00
30554;BME280;17335;50.720;7.452;2023-04-29T11:10:52;99562.34;;;10.45;100.00
30554;BME280;17335;50.720;7.452;2023-04-29T11:13:26;99556.03;;;10.56;100.00
30554;BME280;17335;50.720;7.452;2023-04-29T11:16:12;99567.75;;;10.55;100.00
30554;BME280;17335;50.720;7.452;2023-04-29T11:19:06;99570.53;;;10.43;100.00
30554;BME280;17335;50.720;7.452;2023-04-29T11:21:36;99568.59;;;10.45;100.00
30554;BME280;17335;50.720;7.452;2023-04-29T11:24:05;99576.25;;;10.29;100.00
30554;BME280;17335;50.720;7.452;2023-04-29T11:26:35;99576.09;;;10.21;100.00
30554;BME280;17335;50.720;7.452;2023-04-29T11:29:02;99574.56;;;10.18;100.00
30554;BME280;17335;50.720;7.452;2023-04-29T11:31:31;99575.66;;;10.16;100.00
30554;BME280;17335;50.720;7.452;2023-04-29T11:33:58;99572.84;;;10.17;100.00
30554;BME280;17335;50.720;7.452;2023-04-29T11:36:25;99580.75;;;10.19;100.00
30554;BME280;17335;50.720;7.452;2023-04-29T11:38:56;99587.97;;;10.28;100.00
30554;BME280;17335;50.720;7.452;2023-04-29T11:41:22;99588.13;;;10.26;100.00
30554;BME280;17335;50.720;7.452;2023-04-29T11:43:56;99583.25;;;10.31;100.00
30554;BME280;17335;50.720;7.452;2023-04-29T11:46:23;99593.81;;;10.33;100.00
30554;BME280;17335;50.720;7.452;2023-04-29T11:48:50;99594.47;;;10.25;100.00
30554;BME280;17335;50.720;7.452;2023-04-29T11:51:17;99594.34;;;10.27;100.00
30554;BME280;17335;50.720;7.452;2023-04-29T11:53:46;99596.31;;;10.25;100.00
30554;BME280;17335;50.720;7.452;2023-04-29T11:56:12;99596.91;;;10.28;100.00
30554;BME280;17335;50.720;7.452;2023-04-29T11:58:41;99596.31;;;10.25;100.00
30554;BME280;17335;50.720;7.452;2023-04-29T12:01:07;99590.09;;;10.24;100.00
30554;BME280;17335;50.720;7.452;2023-04-29T12:03:34;99590.75;;;10.47;100.00
30554;BME280;17335;50.720;7.452;2023-04-29T12:06:02;99593.16;;;10.41;100.00
30554;BME280;17335;50.720;7.452;2023-04-29T12:08:29;99583.94;;;10.43;100.00
30554;BME280;17335;50.720;7.452;2023-04-29T12:10:57;99591.63;;;10.58;100.00
30554;BME280;17335;50.720;7.452;2023-04-29T12:13:28;99597.28;;;10.74;100.00
30554;BME280;17335;50.720;7.452;2023-04-29T12:15:56;99590.50;;;10.70;100.00
30554;BME280;17335;50.720;7.452;2023-04-29T12:18:24;99587.94;;;10.59;100.00
30554;BME280;17335;50.720;7.452;2023-04-29T12:20:52;99577.19;;;10.59;100.00
30554;BME280;17335;50.720;7.452;2023-04-29T12:23:24;99591.63;;;10.67;100.00
30554;BME280;17335;50.720;7.452;2023-04-29T12:25:58;99593.31;;;10.59;100.00
30554;BME280;17335;50.720;7.452;2023-04-29T12:28:26;99592.03;;;10.53;100.00
30554;BME280;17335;50.720;7.452;2023-04-29T12:30:53;99594.41;;;10.46;100.00
30554;BME280;17335;50.720;7.452;2023-04-29T12:33:21;99603.06;;;10.60;100.00
30554;BME280;17335;50.720;7.452;2023-04-29T12:35:49;99598.53;;;10.50;100.00
30554;BME280;17335;50.720;7.452;2023-04-29T12:38:26;99595.84;;;10.50;100.00
30554;BME280;17335;50.720;7.452;2023-04-29T12:40:59;99598.09;;;10.45;100.00
30554;BME280;17335;50.720;7.452;2023-04-29T12:43:31;99601.22;;;10.50;100.00
30554;BME280;17335;50.720;7.452;2023-04-29T12:46:03;99608.44;;;10.60;100.00
30554;BME280;17335;50.720;7.452;2023-04-29T12:48:31;99607.59;;;10.59;100.00
30554;BME280;17335;50.720;7.452;2023-04-29T12:51:00;99606.59;;;10.50;100.00
30554;BME280;17335;50.720;7.452;2023-04-29T12:53:30;99610.59;;;10.66;100.00
30554;BME280;17335;50.720;7.452;2023-04-29T12:55:58;99607.47;;;10.61;100.00
30554;BME280;17335;50.720;7.452;2023-04-29T12:58:28;99612.00;;;10.70;100.00
30554;BME280;17335;50.720;7.452;2023-04-29T13:00:56;99612.97;;;10.69;100.00
30554;BME280;17335;50.720;7.452;2023-04-29T13:03:23;99619.31;;;10.58;100.00
30554;BME280;17335;50.720;7.452;2023-04-29T13:05:50;99613.78;;;10.50;100.00
30554;BME280;17335;50.720;7.452;2023-04-29T13:08:20;99616.63;;;10.58;100.00
30554;BME280;17335;50.720;7.452;2023-04-29T13:10:47;99617.03;;;10.54;100.00
30554;BME280;17335;50.720;7.452;2023-04-29T13:13:14;99614.22;;;10.55;100.00
30554;BME280;17335;50.720;7.452;2023-04-29T13:15:42;99619.88;;;10.52;100.00
30554;BME280;17335;50.720;7.452;2023-04-29T13:18:08;99621.97;;;10.48;100.00